Greater Binghamton,Edwin A Link field Binghamton US
ICAO: KBGM
IATA: BGM
Category: Medium
Scheduled Services: Yes

Elevation: 1636 ft
TransAlt. 18000 ft.

Airport Communications:
APP/DEP:118.6
ATIS:128.15
CLNC DEL:125.05
CTAF:119.3
GND:121.9
BUFFALO RDO:112.2
TWR:119.3
UNICOM:122.95

KBGM Zoom In..

If you have problems with the map follow the link
https://www.worldairports.se/pages/airport.php?
ICAO=KBGM

Runways:

(A) RW 10 length 5001 ft width 150 ft
---- / hdg 98

(B) RW 16 length 7304 ft width 150 ft
ILS 110.30 / hdg 160

(C) RW 28 length 5001 ft width 150 ft
---- / hdg 278

(D) RW 34 length 7304 ft width 150 ft
ILS 110.30 / hdg 340

Location; KBGM
Day. 26 / Time. 03.34 Zulu
* Altimeter: 29.75
* Temperature: 00° c. 32°f.
* Wind from: 270° Speed 04 kn.
Dewpoint: 00° c.
Visibility: 1 m.
Clouds: Overcast 200 ft.
Conditions: Mist.

KBGM 260334Z 27004KT 1 1/2SM BR OVC002 00/00 A2975 RMK AO2 SNE11 P0000 T00000000 $


Wind From 270°
Speed 04 kn.

 
 
jpsmedia worldairports.se 2020   terms of use